Terminal Aerodrome Forecast
Issued by NWS Cleveland, OH

Home | Current Version | Previous Version | Text Only | Print | Product List | Glossary On
Versions: 1 2 3 4 5 6 7 8 9 10 11 12 13 14 15 16 17 18 19
617
FTUS41 KCLE 130548
TAFTOL
TAF
KTOL 130548Z 1306/1406 27010KT P6SM OVC050
     FM131200 24005KT P6SM VCSH SCT025 OVC040
     FM131400 22006KT 3SM -SN SCT015 OVC025
     FM131900 18008KT 3SM -SN BKN015 OVC025
      TEMPO 1321/1401 1/2SM SN BKN005 OVC012
     FM140300 02010KT P6SM OVC015=

USA.gov is the U.S. government's official web portal to all federal, state and local government web resources and services.